createdAt,value
2022-09-20T00:01:34.420Z,96723.69
2022-09-20T00:04:06.980Z,96722.00
2022-09-20T00:06:35.804Z,96708.13
2022-09-20T00:09:05.779Z,96712.28
2022-09-20T00:11:36.373Z,96705.47
2022-09-20T00:14:08.736Z,96698.84
2022-09-20T00:16:40.589Z,96697.34
2022-09-20T00:19:16.192Z,96693.56
2022-09-20T00:21:44.525Z,96698.88
2022-09-20T00:24:12.912Z,96695.25
2022-09-20T00:26:41.511Z,96684.53
2022-09-20T00:29:09.807Z,96692.31
2022-09-20T00:31:40.284Z,96686.88
2022-09-20T00:34:29.091Z,96685.03
2022-09-20T00:36:57.473Z,96678.28
2022-09-20T00:39:25.998Z,96675.28
2022-09-20T00:41:54.367Z,96675.13
2022-09-20T00:44:45.339Z,96666.22
2022-09-20T00:47:22.589Z,96670.00
2022-09-20T00:49:57.381Z,96669.16
2022-09-20T00:52:26.782Z,96669.00
2022-09-20T00:54:56.228Z,96658.75
2022-09-20T00:57:25.331Z,96666.69
2022-09-20T00:59:55.076Z,96666.69
2022-09-20T01:02:28.917Z,96666.00
2022-09-20T01:04:59.882Z,96667.03
2022-09-20T01:07:28.478Z,96664.69
2022-09-20T01:09:57.361Z,96671.13
2022-09-20T01:12:30.305Z,96661.38
2022-09-20T01:15:00.710Z,96661.53
2022-09-20T01:17:32.567Z,96659.03
2022-09-20T01:20:14.610Z,96654.59
2022-09-20T01:22:54.111Z,96649.47
2022-09-20T01:25:41.170Z,96649.81
2022-09-20T01:28:10.889Z,96646.00
2022-09-20T01:30:44.847Z,96654.91
2022-09-20T01:33:24.607Z,96645.13
2022-09-20T01:35:55.623Z,96640.84
2022-09-20T01:38:35.634Z,96631.09
2022-09-20T01:41:08.887Z,96636.38
2022-09-20T01:43:44.343Z,96643.50
2022-09-20T01:46:29.930Z,96638.22
2022-09-20T01:49:08.160Z,96639.19
2022-09-20T01:52:07.521Z,96633.88
2022-09-20T01:55:12.314Z,96629.25
2022-09-20T01:58:14.031Z,96628.44
2022-09-20T02:01:02.728Z,96637.19
2022-09-20T02:03:55.656Z,96636.88
2022-09-20T02:06:46.463Z,96638.72
2022-09-20T02:09:37.100Z,96640.69
2022-09-20T02:12:39.804Z,96639.38
2022-09-20T02:15:18.817Z,96640.66
2022-09-20T02:18:00.125Z,96633.22
2022-09-20T02:20:37.108Z,96631.59
2022-09-20T02:23:17.443Z,96634.91
2022-09-20T02:26:16.188Z,96633.09
2022-09-20T02:29:10.330Z,96632.78
2022-09-20T02:31:56.057Z,96629.13
2022-09-20T02:34:45.109Z,96630.94
2022-09-20T02:37:34.656Z,96637.91
2022-09-20T02:40:21.262Z,96650.47
2022-09-20T02:42:56.876Z,96649.16
2022-09-20T02:45:34.057Z,96642.69
2022-09-20T02:48:05.980Z,96636.38
2022-09-20T02:50:43.471Z,96635.22
2022-09-20T02:53:28.180Z,96638.72
2022-09-20T02:56:05.868Z,96649.31
2022-09-20T02:58:45.772Z,96656.59
2022-09-20T03:01:26.517Z,96666.53
2022-09-20T03:04:03.534Z,96657.41
2022-09-20T03:06:42.703Z,96657.94
2022-09-20T03:09:19.416Z,96648.19
2022-09-20T03:11:55.087Z,96646.88
2022-09-20T03:14:29.403Z,96648.66
2022-09-20T03:17:07.060Z,96643.56
2022-09-20T03:19:53.019Z,96643.72
2022-09-20T03:22:38.411Z,96648.84
2022-09-20T03:25:27.235Z,96651.97
2022-09-20T03:28:09.570Z,96655.31
2022-09-20T03:30:50.960Z,96651.00
2022-09-20T03:33:29.431Z,96655.47
2022-09-20T03:36:13.458Z,96652.47
2022-09-20T03:39:08.171Z,96653.78
2022-09-20T03:41:53.962Z,96649.66
2022-09-20T03:44:36.909Z,96657.91
2022-09-20T03:47:15.815Z,96653.28
2022-09-20T03:50:15.138Z,96657.03
2022-09-20T03:53:01.991Z,96649.09
2022-09-20T03:55:53.931Z,96654.03
2022-09-20T03:58:36.284Z,96656.00
2022-09-20T04:01:26.174Z,96659.66
2022-09-20T04:04:03.210Z,96660.97
2022-09-20T04:06:54.589Z,96659.63
2022-09-20T04:09:55.321Z,96663.25
2022-09-20T04:12:32.624Z,96658.09
2022-09-20T04:15:17.088Z,96665.88
2022-09-20T04:17:53.343Z,96660.44
2022-09-20T04:20:29.039Z,96660.09
2022-09-20T04:23:00.710Z,96661.13
2022-09-20T04:25:40.701Z,96663.09
2022-09-20T04:28:22.666Z,96665.88
2022-09-20T04:30:55.426Z,96669.69
2022-09-20T04:33:29.304Z,96668.88
2022-09-20T04:36:27.723Z,96673.34
2022-09-20T04:39:16.186Z,96665.59
2022-09-20T04:42:30.157Z,96663.63
2022-09-20T04:45:42.752Z,96668.63
2022-09-20T04:48:33.340Z,96671.25
2022-09-20T04:51:27.152Z,96671.56
2022-09-20T04:54:39.112Z,96668.41
2022-09-20T04:57:34.474Z,96667.25
2022-09-20T05:00:08.732Z,96666.63
2022-09-20T05:03:15.625Z,96669.44
2022-09-20T05:06:05.125Z,96671.94
2022-09-20T05:09:02.675Z,96664.97
2022-09-20T05:12:03.562Z,96669.44
2022-09-20T05:14:55.365Z,96673.94
2022-09-20T05:17:37.194Z,96668.78
2022-09-20T05:20:31.849Z,96675.75
2022-09-20T05:23:31.992Z,96679.53
2022-09-20T05:26:14.812Z,96669.63
2022-09-20T05:28:54.843Z,96680.22
2022-09-20T05:31:34.171Z,96671.28
2022-09-20T05:34:13.759Z,96679.06
2022-09-20T05:36:56.666Z,96687.31
2022-09-20T05:39:35.636Z,96686.66
2022-09-20T05:42:16.808Z,96687.66
2022-09-20T05:45:18.086Z,96691.13
2022-09-20T05:47:56.291Z,96689.16
2022-09-20T05:50:43.826Z,96687.53
2022-09-20T05:53:39.077Z,96696.31
2022-09-20T05:56:19.311Z,96694.16
2022-09-20T05:59:12.300Z,96697.63
2022-09-20T06:01:43.427Z,96700.28
2022-09-20T06:04:19.028Z,96705.72
2022-09-20T06:06:57.007Z,96705.41
2022-09-20T06:09:45.481Z,96704.75
2022-09-20T06:12:31.863Z,96708.75
2022-09-20T06:15:13.531Z,96704.97
2022-09-20T06:17:46.319Z,96709.09
2022-09-20T06:20:26.724Z,96716.22
2022-09-20T06:22:56.972Z,96710.78
2022-09-20T06:25:31.475Z,96713.22
2022-09-20T06:28:06.168Z,96718.06
2022-09-20T06:30:38.293Z,96721.38
2022-09-20T06:33:15.722Z,96720.88
2022-09-20T06:35:50.042Z,96718.72
2022-09-20T06:39:02.401Z,96720.22
2022-09-20T06:41:36.211Z,96723.38
2022-09-20T06:44:06.484Z,96722.03
2022-09-20T06:46:36.879Z,96727.03
2022-09-20T06:49:09.578Z,96725.69
2022-09-20T06:51:40.064Z,96725.53
2022-09-20T06:54:15.414Z,96725.84
2022-09-20T06:56:47.176Z,96718.41
2022-09-20T06:59:16.228Z,96726.56
2022-09-20T07:01:44.706Z,96725.03
2022-09-20T07:04:13.311Z,96726.03
2022-09-20T07:06:41.929Z,96727.34
2022-09-20T07:09:12.574Z,96725.22
2022-09-20T07:11:40.984Z,96714.09
2022-09-20T07:14:10.911Z,96724.38
2022-09-20T07:16:40.078Z,96726.72
2022-09-20T07:19:08.477Z,96728.50
2022-09-20T07:21:37.040Z,96739.13
2022-09-20T07:24:05.590Z,96736.66
2022-09-20T07:26:34.153Z,96736.00
2022-09-20T07:29:02.960Z,96737.97
2022-09-20T07:31:32.919Z,96736.97
2022-09-20T07:34:01.848Z,96739.13
2022-09-20T07:36:30.298Z,96739.13
2022-09-20T07:38:58.737Z,96738.97
2022-09-20T07:41:32.305Z,96735.97
2022-09-20T07:44:21.298Z,96746.75
2022-09-20T07:46:51.448Z,96747.41
2022-09-20T07:49:20.710Z,96747.06
2022-09-20T07:51:49.898Z,96752.22
2022-09-20T07:54:18.766Z,96747.91
2022-09-20T07:56:47.611Z,96754.88
2022-09-20T07:59:16.322Z,96751.41
2022-09-20T08:01:44.815Z,96751.41
2022-09-20T08:04:15.035Z,96748.06
2022-09-20T08:06:46.368Z,96749.25
2022-09-20T08:09:15.181Z,96748.56
2022-09-20T08:11:43.852Z,96753.84
2022-09-20T08:14:15.106Z,96753.69
2022-09-20T08:16:44.923Z,96756.84
2022-09-20T08:19:18.351Z,96757.03
2022-09-20T08:21:46.954Z,96764.34
2022-09-20T08:24:16.412Z,96759.53
2022-09-20T08:26:45.613Z,96749.09
2022-09-20T08:29:15.287Z,96755.38
2022-09-20T08:31:43.989Z,96747.56
2022-09-20T08:34:15.098Z,96742.44
2022-09-20T08:36:47.402Z,96744.25
2022-09-20T08:42:14.238Z,96750.28
2022-09-20T08:44:59.992Z,96749.25
2022-09-20T08:47:32.042Z,96741.94
2022-09-20T08:50:09.031Z,96742.91
2022-09-20T08:52:41.476Z,96740.44
2022-09-20T08:55:17.084Z,96740.63
2022-09-20T08:57:50.081Z,96747.25
2022-09-20T09:00:21.130Z,96750.31
2022-09-20T09:02:51.736Z,96758.13
2022-09-20T09:05:36.401Z,96772.94
2022-09-20T09:08:16.203Z,96784.72
2022-09-20T09:10:46.927Z,96792.28
2022-09-20T09:13:22.985Z,96796.88
2022-09-20T09:15:57.757Z,96791.19
2022-09-20T09:18:35.938Z,96787.69
2022-09-20T09:21:05.883Z,96781.53
2022-09-20T09:23:42.371Z,96785.19
2022-09-20T09:26:21.223Z,96778.22
2022-09-20T09:29:16.703Z,96782.19
2022-09-20T09:31:45.500Z,96777.53
2022-09-20T09:34:28.441Z,96773.28
2022-09-20T09:36:57.368Z,96777.56
2022-09-20T09:39:30.499Z,96779.38
2022-09-20T09:42:00.923Z,96773.75
2022-09-20T09:44:32.813Z,96776.41
2022-09-20T09:47:01.551Z,96761.84
2022-09-20T09:49:37.166Z,96769.47
2022-09-20T09:52:14.503Z,96764.47
2022-09-20T09:54:49.154Z,96767.13
2022-09-20T09:57:39.388Z,96769.25
2022-09-20T10:00:19.951Z,96773.72
2022-09-20T10:03:17.362Z,96771.91
2022-09-20T10:05:57.374Z,96773.28
2022-09-20T10:08:36.241Z,96770.28
2022-09-20T10:11:19.533Z,96764.31
2022-09-20T10:13:54.289Z,96769.63
2022-09-20T10:16:32.213Z,96764.19
2022-09-20T10:19:08.050Z,96764.06
2022-09-20T10:21:48.766Z,96765.91
2022-09-20T10:24:30.604Z,96761.78
2022-09-20T10:27:12.695Z,96763.09
2022-09-20T10:29:57.252Z,96759.84
2022-09-20T10:32:36.166Z,96766.13
2022-09-20T10:35:26.219Z,96758.03
2022-09-20T10:38:15.575Z,96757.53
2022-09-20T10:41:13.586Z,96750.22
2022-09-20T10:44:02.719Z,96753.03
2022-09-20T10:46:45.560Z,96752.56
2022-09-20T10:49:24.926Z,96758.34
2022-09-20T10:52:11.671Z,96757.66
2022-09-20T10:54:54.244Z,96755.69
2022-09-20T10:58:01.590Z,96757.53
2022-09-20T11:00:43.462Z,96752.56
2022-09-20T11:03:26.688Z,96752.06
2022-09-20T11:06:05.440Z,96749.06
2022-09-20T11:08:35.582Z,96755.53
2022-09-20T11:11:10.545Z,96751.88
2022-09-20T11:13:45.615Z,96760.50
2022-09-20T11:16:21.202Z,96766.63
2022-09-20T11:18:56.033Z,96767.81
2022-09-20T11:21:28.275Z,96770.78
2022-09-20T11:24:03.703Z,96776.75
2022-09-20T11:26:39.018Z,96772.44
2022-09-20T11:29:23.555Z,96762.00
2022-09-20T11:31:56.665Z,96756.66
2022-09-20T11:34:30.574Z,96760.78
2022-09-20T11:37:02.603Z,96768.06
2022-09-20T11:39:40.498Z,96772.84
2022-09-20T11:42:16.230Z,96761.06
2022-09-20T11:44:44.941Z,96760.03
2022-09-20T11:47:42.734Z,96754.44
2022-09-20T11:50:46.851Z,96756.44
2022-09-20T11:53:34.485Z,96741.31
2022-09-20T11:56:08.745Z,96736.97
2022-09-20T11:58:49.037Z,96738.94
2022-09-20T12:01:28.494Z,96735.50
2022-09-20T12:04:30.729Z,96736.34
2022-09-20T12:07:01.629Z,96733.16
2022-09-20T12:09:41.097Z,96726.53
2022-09-20T12:12:20.158Z,96730.19
2022-09-20T12:14:56.368Z,96719.13
2022-09-20T12:18:05.523Z,96721.31
2022-09-20T12:21:03.929Z,96721.97
2022-09-20T12:24:08.574Z,96711.78
2022-09-20T12:26:57.492Z,96719.88
2022-09-20T12:30:04.192Z,96713.53
2022-09-20T12:32:48.294Z,96701.63
2022-09-20T12:35:53.244Z,96712.38
2022-09-20T12:38:46.586Z,96714.56
2022-09-20T12:41:27.588Z,96723.16
2022-09-20T12:44:01.097Z,96719.38
2022-09-20T12:46:43.605Z,96715.34
2022-09-20T12:49:55.940Z,96714.19
2022-09-20T12:52:56.300Z,96711.19
2022-09-20T12:55:40.935Z,96722.28
2022-09-20T12:58:22.922Z,96724.66
2022-09-20T13:01:14.566Z,96724.19
2022-09-20T13:03:45.058Z,96723.47
2022-09-20T13:06:24.958Z,96726.84
2022-09-20T13:09:02.145Z,96723.34
2022-09-20T13:11:38.475Z,96730.31
2022-09-20T13:14:13.446Z,96724.19
2022-09-20T13:16:51.123Z,96721.69
2022-09-20T13:19:21.345Z,96718.88
2022-09-20T13:21:58.284Z,96712.34
2022-09-20T13:24:29.796Z,96718.88
2022-09-20T13:27:04.327Z,96713.09
2022-09-20T13:29:35.839Z,96717.44
2022-09-20T13:32:18.525Z,96718.91
2022-09-20T13:34:46.993Z,96722.38
2022-09-20T13:37:23.668Z,96713.38
2022-09-20T13:39:55.608Z,96705.59
2022-09-20T13:42:28.926Z,96716.59
2022-09-20T13:44:59.627Z,96711.91
2022-09-20T13:47:30.123Z,96710.91
2022-09-20T13:50:02.973Z,96714.56
2022-09-20T13:52:33.075Z,96718.59
2022-09-20T13:55:01.436Z,96723.19
2022-09-20T13:57:31.820Z,96716.59
2022-09-20T14:00:02.250Z,96715.56
2022-09-20T14:02:32.847Z,96716.16
2022-09-20T14:05:03.243Z,96715.88
2022-09-20T14:07:32.189Z,96716.03
2022-09-20T14:10:00.901Z,96708.25
2022-09-20T14:12:31.164Z,96715.59
2022-09-20T14:14:59.846Z,96726.25
2022-09-20T14:17:33.133Z,96722.47
2022-09-20T14:20:01.900Z,96719.25
2022-09-20T14:22:30.608Z,96726.31
2022-09-20T14:25:02.350Z,96721.75
2022-09-20T14:27:32.716Z,96717.50
2022-09-20T14:30:02.379Z,96723.72
2022-09-20T14:32:40.746Z,96711.97
2022-09-20T14:35:16.957Z,96718.09
2022-09-20T14:37:51.733Z,96711.97
2022-09-20T14:40:24.332Z,96714.44
2022-09-20T14:42:57.272Z,96713.06
2022-09-20T14:45:30.257Z,96725.00
2022-09-20T14:48:05.679Z,96718.03
2022-09-20T14:50:41.055Z,96721.53
2022-09-20T14:53:30.991Z,96715.00
2022-09-20T14:56:07.953Z,96714.84
2022-09-20T15:02:04.046Z,96709.50
2022-09-20T15:04:35.387Z,96708.88
2022-09-20T15:07:06.371Z,96712.34
2022-09-20T15:09:35.498Z,96719.69
2022-09-20T15:12:17.814Z,96715.44
2022-09-20T15:14:46.506Z,96714.88
2022-09-20T15:17:18.836Z,96729.53
2022-09-20T15:19:47.673Z,96726.22
2022-09-20T15:22:16.642Z,96729.72
2022-09-20T15:24:45.147Z,96727.22
2022-09-20T15:27:14.121Z,96728.03
2022-09-20T15:29:42.484Z,96731.56
2022-09-20T15:32:12.019Z,96730.91
2022-09-20T15:34:41.855Z,96732.94
2022-09-20T15:37:10.196Z,96733.09
2022-09-20T15:39:38.538Z,96740.69
2022-09-20T15:42:06.959Z,96744.19
2022-09-20T15:44:35.338Z,96743.81
2022-09-20T15:47:04.538Z,96736.22
2022-09-20T15:49:33.240Z,96741.53
2022-09-20T15:52:03.451Z,96739.88
2022-09-20T15:54:31.958Z,96739.56
2022-09-20T15:57:00.286Z,96744.63
2022-09-20T15:59:29.302Z,96742.47
2022-09-20T16:01:57.908Z,96742.69
2022-09-20T16:04:27.195Z,96745.34
2022-09-20T16:06:55.510Z,96746.69
2022-09-20T16:09:25.262Z,96743.84
2022-09-20T16:11:58.689Z,96752.28
2022-09-20T16:14:27.363Z,96753.66
2022-09-20T16:16:58.479Z,96752.19
2022-09-20T16:19:26.201Z,96753.53
2022-09-20T16:21:58.990Z,96757.09
2022-09-20T16:24:30.958Z,96755.44
2022-09-20T16:27:02.456Z,96749.31
2022-09-20T16:29:31.257Z,96753.50
2022-09-20T16:32:00.864Z,96765.00
2022-09-20T16:34:31.374Z,96762.84
2022-09-20T16:37:01.376Z,96760.06
2022-09-20T16:39:32.073Z,96757.75
2022-09-20T16:42:03.611Z,96762.56
2022-09-20T16:44:32.353Z,96772.06
2022-09-20T16:47:01.223Z,96769.75
2022-09-20T16:49:29.870Z,96771.59
2022-09-20T16:51:58.249Z,96768.28
2022-09-20T16:54:31.563Z,96773.59
2022-09-20T16:57:02.143Z,96781.88
2022-09-20T16:59:30.530Z,96780.25
2022-09-20T17:01:59.158Z,96777.28
2022-09-20T17:04:27.753Z,96779.44
2022-09-20T17:06:56.227Z,96782.63
2022-09-20T17:09:24.612Z,96792.09
2022-09-20T17:11:53.750Z,96788.78
2022-09-20T17:14:24.969Z,96790.78
2022-09-20T17:16:53.305Z,96794.56
2022-09-20T17:19:21.943Z,96789.47
2022-09-20T17:21:51.522Z,96791.09
2022-09-20T17:24:21.622Z,96798.91
2022-09-20T17:26:51.009Z,96803.19
2022-09-20T17:29:20.619Z,96806.03
2022-09-20T17:31:55.651Z,96813.16
2022-09-20T17:34:26.296Z,96822.28
2022-09-20T17:36:55.326Z,96823.78
2022-09-20T17:39:24.429Z,96827.09
2022-09-20T17:41:52.803Z,96836.38
2022-09-20T17:44:21.276Z,96832.53
2022-09-20T17:46:53.821Z,96838.88
2022-09-20T17:49:24.152Z,96844.00
2022-09-20T17:51:54.374Z,96849.19
2022-09-20T17:54:24.474Z,96853.47
2022-09-20T17:56:55.833Z,96864.59
2022-09-20T17:59:24.982Z,96865.75
2022-09-20T18:01:55.647Z,96873.72
2022-09-20T18:04:25.240Z,96874.38
2022-09-20T18:06:54.833Z,96870.22
2022-09-20T18:09:25.271Z,96871.22
2022-09-20T18:11:54.847Z,96875.72
2022-09-20T18:14:24.554Z,96874.88
2022-09-20T18:16:55.947Z,96879.72
2022-09-20T18:19:24.360Z,96877.06
2022-09-20T18:21:52.941Z,96878.03
2022-09-20T18:24:21.269Z,96886.16
2022-09-20T18:26:49.602Z,96888.97
2022-09-20T18:29:18.505Z,96894.13
2022-09-20T18:31:48.783Z,96891.50
2022-09-20T18:34:20.610Z,96900.28
2022-09-20T18:36:52.602Z,96903.59
2022-09-20T18:39:21.620Z,96905.75
2022-09-20T18:41:50.773Z,96911.72
2022-09-20T18:44:19.412Z,96918.16
2022-09-20T18:46:48.182Z,96909.22
2022-09-20T18:49:18.001Z,96913.81
2022-09-20T18:51:47.401Z,96914.94
2022-09-20T18:54:16.641Z,96907.66
2022-09-20T18:56:47.657Z,96912.91
2022-09-20T18:59:18.456Z,96907.63
2022-09-20T19:02:08.490Z,96911.28
2022-09-20T19:04:55.194Z,96922.03
2022-09-20T19:07:32.952Z,96920.19
2022-09-20T19:10:09.202Z,96923.50
2022-09-20T19:12:44.168Z,96937.09
2022-09-20T19:15:37.225Z,96943.06
2022-09-20T19:18:23.651Z,96941.75
2022-09-20T19:20:59.402Z,96936.78
2022-09-20T19:23:45.575Z,96932.84
2022-09-20T19:26:21.906Z,96945.44
2022-09-20T19:28:51.741Z,96948.53
2022-09-20T19:31:25.498Z,96952.34
2022-09-20T19:33:56.119Z,96948.81
2022-09-20T19:36:36.333Z,96948.44
2022-09-20T19:39:11.235Z,96949.59
2022-09-20T19:41:51.975Z,96950.59
2022-09-20T19:44:33.891Z,96948.63
2022-09-20T19:47:22.328Z,96951.59
2022-09-20T19:49:55.209Z,96958.25
2022-09-20T19:52:26.045Z,96950.97
2022-09-20T19:54:55.239Z,96957.13
2022-09-20T19:57:28.479Z,96956.91
2022-09-20T19:59:57.971Z,96959.75
2022-09-20T20:02:26.871Z,96955.44
2022-09-20T20:04:56.100Z,96961.78
2022-09-20T20:07:34.599Z,96953.03
2022-09-20T20:10:11.569Z,96961.47
2022-09-20T20:12:48.665Z,96957.53
2022-09-20T20:15:26.527Z,96961.00
2022-09-20T20:18:01.901Z,96962.31
2022-09-20T20:20:35.632Z,96969.31
2022-09-20T20:23:42.383Z,96971.44
2022-09-20T20:26:18.125Z,96976.06
2022-09-20T20:28:46.577Z,96977.91
2022-09-20T20:31:15.591Z,96978.56
2022-09-20T20:33:44.428Z,96984.69
2022-09-20T20:36:12.884Z,96991.97
2022-09-20T20:38:49.449Z,96990.50
2022-09-20T20:41:21.301Z,96988.16
2022-09-20T20:43:57.073Z,96981.84
2022-09-20T20:46:26.346Z,96987.50
2022-09-20T20:48:54.770Z,96983.88
2022-09-20T20:51:24.344Z,96988.31
2022-09-20T20:53:55.528Z,96988.00
2022-09-20T20:56:26.756Z,96987.47
2022-09-20T20:58:55.224Z,96986.00
2022-09-20T21:01:25.352Z,96988.47
2022-09-20T21:03:54.997Z,96991.97
2022-09-20T21:06:26.347Z,96988.31
2022-09-20T21:08:56.284Z,96989.78
2022-09-20T21:11:27.301Z,96995.09
2022-09-20T21:13:58.224Z,96990.44
2022-09-20T21:16:28.687Z,96998.06
2022-09-20T21:18:58.078Z,96996.88
2022-09-20T21:21:28.170Z,97002.44
2022-09-20T21:24:00.090Z,97003.91
2022-09-20T21:26:31.885Z,97006.41
2022-09-20T21:29:02.386Z,96997.25
2022-09-20T21:31:32.999Z,97003.03
2022-09-20T21:34:01.819Z,97006.13
2022-09-20T21:36:31.255Z,97006.47
2022-09-20T21:39:00.947Z,97005.41
2022-09-20T21:41:31.599Z,97003.94
2022-09-20T21:44:02.251Z,97012.69
2022-09-20T21:46:33.326Z,97007.91
2022-09-20T21:49:04.011Z,97009.13
2022-09-20T21:51:33.086Z,97020.38
2022-09-20T21:54:03.898Z,97015.25
2022-09-20T21:56:34.198Z,97008.78
2022-09-20T21:59:04.225Z,97018.22
2022-09-20T22:01:34.894Z,97012.78
2022-09-20T22:04:07.065Z,97019.75
2022-09-20T22:06:37.192Z,97019.38
2022-09-20T22:09:09.569Z,97012.06
2022-09-20T22:11:40.477Z,97013.38
2022-09-20T22:14:09.915Z,97022.97
2022-09-20T22:16:40.098Z,97018.34
2022-09-20T22:19:09.963Z,97018.66
2022-09-20T22:21:40.980Z,97014.16
2022-09-20T22:24:12.141Z,97014.91
2022-09-20T22:26:42.848Z,97008.81
2022-09-20T22:29:11.901Z,97011.75
2022-09-20T22:31:45.053Z,97003.06
2022-09-20T22:34:16.138Z,97013.66
2022-09-20T22:36:45.343Z,97012.81
2022-09-20T22:39:16.243Z,97013.44
2022-09-20T22:41:45.187Z,97004.28
2022-09-20T22:44:13.523Z,97015.56
2022-09-20T22:46:41.945Z,97004.97
2022-09-20T22:49:10.935Z,97008.59
2022-09-20T22:51:39.439Z,97011.03
2022-09-20T22:54:09.223Z,97011.34
2022-09-20T22:56:41.417Z,97009.38
2022-09-20T22:59:11.858Z,97012.31
2022-09-20T23:01:42.611Z,97010.28
2022-09-20T23:04:12.783Z,97009.25
2022-09-20T23:06:42.720Z,97013.63
2022-09-20T23:09:12.557Z,97010.75
2022-09-20T23:11:43.318Z,97012.56
2022-09-20T23:14:14.421Z,97013.75
2022-09-20T23:16:43.124Z,97008.19
2022-09-20T23:19:12.344Z,97003.94
2022-09-20T23:21:42.291Z,97016.56
2022-09-20T23:24:13.495Z,97006.66
2022-09-20T23:26:44.100Z,97011.34
2022-09-20T23:29:14.632Z,97005.91
2022-09-20T23:31:46.400Z,97008.38
2022-09-20T23:34:16.721Z,97014.66
2022-09-20T23:36:46.066Z,97005.38
2022-09-20T23:39:14.898Z,97007.19
2022-09-20T23:41:49.885Z,97012.78
2022-09-20T23:44:19.154Z,97007.63
2022-09-20T23:46:47.509Z,97009.16
2022-09-20T23:49:15.866Z,97000.38
2022-09-20T23:51:44.178Z,97000.22
2022-09-20T23:54:12.751Z,97006.19
2022-09-20T23:56:42.747Z,97004.38
2022-09-20T23:59:12.673Z,97007.03
